sensor_id;sensor_type;location;lat;lon;timestamp;pressure;altitude;pressure_sealevel;temperature;humidity
47670;BME280;33408;52.062;11.722;2023-06-19T00:01:28;100858.81;;;19.77;98.64
47670;BME280;33408;52.062;11.722;2023-06-19T00:03:54;100857.69;;;19.81;100.00
47670;BME280;33408;52.062;11.722;2023-06-19T00:06:21;100857.09;;;19.76;99.15
47670;BME280;33408;52.062;11.722;2023-06-19T00:08:47;100858.94;;;19.74;98.10
47670;BME280;33408;52.062;11.722;2023-06-19T00:11:14;100860.56;;;19.77;94.22
47670;BME280;33408;52.062;11.722;2023-06-19T00:13:41;100847.84;;;19.85;92.29
47670;BME280;33408;52.062;11.722;2023-06-19T00:16:09;100848.78;;;19.84;90.55
47670;BME280;33408;52.062;11.722;2023-06-19T00:18:35;100846.91;;;19.86;87.61
47670;BME280;33408;52.062;11.722;2023-06-19T00:21:05;100847.16;;;19.81;87.35
47670;BME280;33408;52.062;11.722;2023-06-19T00:23:32;100842.84;;;19.80;86.31
47670;BME280;33408;52.062;11.722;2023-06-19T00:25:59;100842.28;;;19.74;86.68
47670;BME280;33408;52.062;11.722;2023-06-19T00:28:26;100833.34;;;19.78;86.15
47670;BME280;33408;52.062;11.722;2023-06-19T00:30:53;100839.53;;;19.77;86.48
47670;BME280;33408;52.062;11.722;2023-06-19T00:33:21;100841.44;;;19.73;86.58
47670;BME280;33408;52.062;11.722;2023-06-19T00:35:50;100837.56;;;19.64;87.56
47670;BME280;33408;52.062;11.722;2023-06-19T00:38:16;100832.81;;;19.71;86.41
47670;BME280;33408;52.062;11.722;2023-06-19T00:40:43;100832.88;;;19.70;86.75
47670;BME280;33408;52.062;11.722;2023-06-19T00:43:09;100835.34;;;19.73;86.89
47670;BME280;33408;52.062;11.722;2023-06-19T00:45:36;100833.91;;;19.67;87.14
47670;BME280;33408;52.062;11.722;2023-06-19T00:48:04;100837.22;;;19.71;87.72
47670;BME280;33408;52.062;11.722;2023-06-19T00:50:32;100841.31;;;19.76;87.77
47670;BME280;33408;52.062;11.722;2023-06-19T00:53:00;100841.06;;;19.81;88.86
47670;BME280;33408;52.062;11.722;2023-06-19T00:55:30;100847.75;;;19.71;92.09
47670;BME280;33408;52.062;11.722;2023-06-19T00:57:59;100838.38;;;19.49;98.56
47670;BME280;33408;52.062;11.722;2023-06-19T01:00:26;100836.66;;;19.48;100.00
47670;BME280;33408;52.062;11.722;2023-06-19T01:02:53;100834.66;;;19.37;100.00
47670;BME280;33408;52.062;11.722;2023-06-19T01:05:19;100834.41;;;19.42;99.91
47670;BME280;33408;52.062;11.722;2023-06-19T01:07:52;100827.44;;;19.41;100.00
47670;BME280;33408;52.062;11.722;2023-06-19T01:10:27;100825.66;;;19.41;97.84
47670;BME280;33408;52.062;11.722;2023-06-19T01:12:58;100822.13;;;19.58;98.81
47670;BME280;33408;52.062;11.722;2023-06-19T01:15:27;100821.53;;;19.53;96.17
47670;BME280;33408;52.062;11.722;2023-06-19T01:17:55;100817.84;;;19.56;94.59
47670;BME280;33408;52.062;11.722;2023-06-19T01:20:23;100812.94;;;19.49;93.55
47670;BME280;33408;52.062;11.722;2023-06-19T01:22:51;100807.50;;;19.53;93.16
47670;BME280;33408;52.062;11.722;2023-06-19T01:25:22;100803.59;;;19.44;93.48
47670;BME280;33408;52.062;11.722;2023-06-19T01:27:49;100793.09;;;19.44;94.28
47670;BME280;33408;52.062;11.722;2023-06-19T01:30:16;100802.94;;;19.40;94.95
47670;BME280;33408;52.062;11.722;2023-06-19T01:32:50;100800.81;;;19.47;95.06
47670;BME280;33408;52.062;11.722;2023-06-19T01:35:19;100799.44;;;19.40;94.90
47670;BME280;33408;52.062;11.722;2023-06-19T01:37:48;100790.53;;;19.42;96.17
47670;BME280;33408;52.062;11.722;2023-06-19T01:40:17;100785.47;;;19.39;97.03
47670;BME280;33408;52.062;11.722;2023-06-19T01:42:47;100789.78;;;19.40;97.17
47670;BME280;33408;52.062;11.722;2023-06-19T01:45:14;100789.00;;;19.38;96.46
47670;BME280;33408;52.062;11.722;2023-06-19T01:47:40;100780.03;;;19.42;97.96
47670;BME280;33408;52.062;11.722;2023-06-19T01:50:08;100782.06;;;19.37;97.40
47670;BME280;33408;52.062;11.722;2023-06-19T01:52:35;100777.25;;;19.45;98.03
47670;BME280;33408;52.062;11.722;2023-06-19T01:55:02;100781.47;;;19.32;98.27
47670;BME280;33408;52.062;11.722;2023-06-19T01:57:30;100772.81;;;19.30;98.17
47670;BME280;33408;52.062;11.722;2023-06-19T01:59:57;100770.44;;;19.25;98.60
47670;BME280;33408;52.062;11.722;2023-06-19T02:02:23;100769.41;;;19.28;99.77
47670;BME280;33408;52.062;11.722;2023-06-19T02:04:50;100769.09;;;19.34;99.48
47670;BME280;33408;52.062;11.722;2023-06-19T02:07:16;100774.28;;;19.36;99.75
47670;BME280;33408;52.062;11.722;2023-06-19T02:09:43;100773.41;;;19.35;99.71
47670;BME280;33408;52.062;11.722;2023-06-19T02:12:10;100771.41;;;19.40;99.70
47670;BME280;33408;52.062;11.722;2023-06-19T02:14:38;100770.03;;;19.49;99.57
47670;BME280;33408;52.062;11.722;2023-06-19T02:17:04;100769.53;;;19.42;99.73
47670;BME280;33408;52.062;11.722;2023-06-19T02:19:31;100776.13;;;19.49;100.00
47670;BME280;33408;52.062;11.722;2023-06-19T02:21:57;100775.19;;;19.50;100.00
47670;BME280;33408;52.062;11.722;2023-06-19T02:24:24;100769.44;;;19.44;100.00
47670;BME280;33408;52.062;11.722;2023-06-19T02:26:51;100773.00;;;19.43;100.00
47670;BME280;33408;52.062;11.722;2023-06-19T02:29:17;100777.31;;;19.44;100.00
47670;BME280;33408;52.062;11.722;2023-06-19T02:31:45;100778.16;;;19.28;100.00
47670;BME280;33408;52.062;11.722;2023-06-19T02:34:12;100774.50;;;19.15;100.00
47670;BME280;33408;52.062;11.722;2023-06-19T02:36:39;100780.06;;;19.09;100.00
47670;BME280;33408;52.062;11.722;2023-06-19T02:39:05;100785.28;;;19.26;100.00
47670;BME280;33408;52.062;11.722;2023-06-19T02:41:32;100776.28;;;19.15;100.00
47670;BME280;33408;52.062;11.722;2023-06-19T02:43:59;100769.28;;;18.98;100.00
47670;BME280;33408;52.062;11.722;2023-06-19T02:46:25;100762.59;;;18.74;100.00
47670;BME280;33408;52.062;11.722;2023-06-19T02:48:53;100757.66;;;18.68;100.00
47670;BME280;33408;52.062;11.722;2023-06-19T02:51:20;100762.28;;;18.81;100.00
47670;BME280;33408;52.062;11.722;2023-06-19T02:53:46;100759.44;;;18.85;100.00
47670;BME280;33408;52.062;11.722;2023-06-19T02:56:13;100760.88;;;18.73;100.00
47670;BME280;33408;52.062;11.722;2023-06-19T02:58:40;100754.09;;;18.87;100.00
47670;BME280;33408;52.062;11.722;2023-06-19T03:01:06;100750.75;;;18.83;100.00
47670;BME280;33408;52.062;11.722;2023-06-19T03:03:34;100758.78;;;18.80;100.00
47670;BME280;33408;52.062;11.722;2023-06-19T03:06:05;100763.59;;;18.89;100.00
47670;BME280;33408;52.062;11.722;2023-06-19T03:08:32;100760.66;;;18.95;100.00
47670;BME280;33408;52.062;11.722;2023-06-19T03:10:59;100763.13;;;18.99;100.00
47670;BME280;33408;52.062;11.722;2023-06-19T03:13:26;100763.94;;;18.99;100.00
47670;BME280;33408;52.062;11.722;2023-06-19T03:15:52;100766.56;;;18.99;100.00
47670;BME280;33408;52.062;11.722;2023-06-19T03:18:19;100759.53;;;19.00;100.00
47670;BME280;33408;52.062;11.722;2023-06-19T03:20:46;100754.34;;;18.98;100.00
47670;BME280;33408;52.062;11.722;2023-06-19T03:23:14;100763.78;;;19.02;100.00
47670;BME280;33408;52.062;11.722;2023-06-19T03:25:40;100760.84;;;19.08;100.00
47670;BME280;33408;52.062;11.722;2023-06-19T03:28:08;100758.47;;;19.04;100.00
47670;BME280;33408;52.062;11.722;2023-06-19T03:30:34;100752.19;;;19.06;100.00
47670;BME280;33408;52.062;11.722;2023-06-19T03:33:01;100749.22;;;19.12;100.00
47670;BME280;33408;52.062;11.722;2023-06-19T03:35:28;100751.16;;;19.09;100.00
47670;BME280;33408;52.062;11.722;2023-06-19T03:37:55;100752.88;;;19.10;100.00
47670;BME280;33408;52.062;11.722;2023-06-19T03:40:23;100757.97;;;19.13;100.00
47670;BME280;33408;52.062;11.722;2023-06-19T03:42:49;100756.94;;;19.16;100.00
47670;BME280;33408;52.062;11.722;2023-06-19T03:45:16;100754.28;;;19.00;100.00
47670;BME280;33408;52.062;11.722;2023-06-19T03:47:42;100754.47;;;18.97;100.00
47670;BME280;33408;52.062;11.722;2023-06-19T03:50:09;100752.59;;;18.99;100.00
47670;BME280;33408;52.062;11.722;2023-06-19T03:52:36;100743.09;;;18.96;100.00
47670;BME280;33408;52.062;11.722;2023-06-19T03:55:03;100741.34;;;18.97;100.00
47670;BME280;33408;52.062;11.722;2023-06-19T03:57:31;100742.84;;;19.01;100.00
47670;BME280;33408;52.062;11.722;2023-06-19T03:59:58;100742.84;;;19.01;100.00
47670;BME280;33408;52.062;11.722;2023-06-19T04:02:25;100740.31;;;18.99;100.00
47670;BME280;33408;52.062;11.722;2023-06-19T04:04:51;100745.06;;;19.08;100.00
47670;BME280;33408;52.062;11.722;2023-06-19T04:07:20;100749.13;;;19.14;100.00
47670;BME280;33408;52.062;11.722;2023-06-19T04:09:46;100750.34;;;19.24;100.00
47670;BME280;33408;52.062;11.722;2023-06-19T04:12:13;100745.00;;;19.26;100.00
47670;BME280;33408;52.062;11.722;2023-06-19T04:14:41;100747.31;;;19.32;100.00
47670;BME280;33408;52.062;11.722;2023-06-19T04:17:07;100742.88;;;19.33;100.00
47670;BME280;33408;52.062;11.722;2023-06-19T04:19:34;100738.56;;;19.31;100.00
47670;BME280;33408;52.062;11.722;2023-06-19T04:22:01;100735.59;;;19.38;100.00
47670;BME280;33408;52.062;11.722;2023-06-19T04:24:27;100735.69;;;19.36;100.00
47670;BME280;33408;52.062;11.722;2023-06-19T04:26:54;100740.50;;;19.44;100.00
47670;BME280;33408;52.062;11.722;2023-06-19T04:29:21;100738.88;;;19.57;100.00
47670;BME280;33408;52.062;11.722;2023-06-19T04:31:52;100745.78;;;19.60;100.00
47670;BME280;33408;52.062;11.722;2023-06-19T04:34:19;100744.06;;;19.43;100.00
47670;BME280;33408;52.062;11.722;2023-06-19T04:36:47;100752.03;;;19.57;100.00
47670;BME280;33408;52.062;11.722;2023-06-19T04:39:14;100754.75;;;19.56;100.00
47670;BME280;33408;52.062;11.722;2023-06-19T04:41:43;100753.31;;;19.66;100.00
47670;BME280;33408;52.062;11.722;2023-06-19T04:44:10;100755.09;;;19.65;100.00
47670;BME280;33408;52.062;11.722;2023-06-19T04:46:37;100758.66;;;19.64;100.00
47670;BME280;33408;52.062;11.722;2023-06-19T04:49:06;100760.50;;;19.62;100.00
47670;BME280;33408;52.062;11.722;2023-06-19T04:51:34;100759.84;;;19.59;100.00
47670;BME280;33408;52.062;11.722;2023-06-19T04:54:00;100750.00;;;19.62;100.00
47670;BME280;33408;52.062;11.722;2023-06-19T04:56:28;100757.13;;;19.60;100.00
47670;BME280;33408;52.062;11.722;2023-06-19T04:58:55;100747.47;;;19.77;100.00
47670;BME280;33408;52.062;11.722;2023-06-19T05:01:25;100744.66;;;19.80;100.00
47670;BME280;33408;52.062;11.722;2023-06-19T05:03:54;100743.81;;;19.79;100.00
47670;BME280;33408;52.062;11.722;2023-06-19T05:06:23;100742.03;;;19.80;100.00
47670;BME280;33408;52.062;11.722;2023-06-19T05:08:50;100752.38;;;19.83;100.00
47670;BME280;33408;52.062;11.722;2023-06-19T05:11:16;100751.53;;;19.82;100.00
47670;BME280;33408;52.062;11.722;2023-06-19T05:13:43;100758.94;;;19.76;100.00
47670;BME280;33408;52.062;11.722;2023-06-19T05:16:09;100752.94;;;19.72;100.00
47670;BME280;33408;52.062;11.722;2023-06-19T05:18:36;100755.88;;;19.67;100.00
47670;BME280;33408;52.062;11.722;2023-06-19T05:21:03;100754.16;;;19.66;100.00
47670;BME280;33408;52.062;11.722;2023-06-19T05:23:31;100760.50;;;19.62;100.00
47670;BME280;33408;52.062;11.722;2023-06-19T05:25:57;100757.72;;;19.65;100.00
47670;BME280;33408;52.062;11.722;2023-06-19T05:28:24;100765.28;;;19.56;100.00
47670;BME280;33408;52.062;11.722;2023-06-19T05:30:50;100767.97;;;19.54;100.00
47670;BME280;33408;52.062;11.722;2023-06-19T05:33:17;100770.88;;;19.49;100.00
47670;BME280;33408;52.062;11.722;2023-06-19T05:35:44;100777.31;;;19.44;100.00
47670;BME280;33408;52.062;11.722;2023-06-19T05:38:16;100768.69;;;19.42;100.00
47670;BME280;33408;52.062;11.722;2023-06-19T05:40:44;100763.50;;;19.40;100.00
47670;BME280;33408;52.062;11.722;2023-06-19T05:43:11;100758.50;;;19.36;100.00
47670;BME280;33408;52.062;11.722;2023-06-19T05:45:37;100769.44;;;19.44;100.00
47670;BME280;33408;52.062;11.722;2023-06-19T05:48:04;100793.94;;;19.44;100.00
47670;BME280;33408;52.062;11.722;2023-06-19T05:50:31;100815.97;;;19.26;100.00
47670;BME280;33408;52.062;11.722;2023-06-19T05:52:57;100814.09;;;19.28;100.00
47670;BME280;33408;52.062;11.722;2023-06-19T05:55:24;100811.41;;;19.29;100.00
47670;BME280;33408;52.062;11.722;2023-06-19T05:57:53;100807.31;;;19.40;100.00
47670;BME280;33408;52.062;11.722;2023-06-19T06:00:20;100795.56;;;19.47;100.00
47670;BME280;33408;52.062;11.722;2023-06-19T06:02:47;100804.03;;;19.52;100.00
47670;BME280;33408;52.062;11.722;2023-06-19T06:05:16;100805.38;;;19.59;100.00
47670;BME280;33408;52.062;11.722;2023-06-19T06:07:44;100826.09;;;19.65;100.00
47670;BME280;33408;52.062;11.722;2023-06-19T06:10:11;100817.69;;;19.75;100.00
47670;BME280;33408;52.062;11.722;2023-06-19T06:12:37;100835.97;;;19.78;100.00
47670;BME280;33408;52.062;11.722;2023-06-19T06:15:06;100837.41;;;19.67;100.00
47670;BME280;33408;52.062;11.722;2023-06-19T06:17:33;100846.41;;;19.79;100.00
47670;BME280;33408;52.062;11.722;2023-06-19T06:20:00;100853.19;;;19.83;100.00
47670;BME280;33408;52.062;11.722;2023-06-19T06:22:26;100852.25;;;19.84;100.00
47670;BME280;33408;52.062;11.722;2023-06-19T06:24:53;100837.22;;;19.86;100.00
47670;BME280;33408;52.062;11.722;2023-06-19T06:27:19;100836.22;;;19.89;100.00
47670;BME280;33408;52.062;11.722;2023-06-19T06:29:46;100852.09;;;19.88;100.00
47670;BME280;33408;52.062;11.722;2023-06-19T06:32:14;100847.09;;;19.83;100.00
47670;BME280;33408;52.062;11.722;2023-06-19T06:34:41;100846.78;;;19.72;100.00
47670;BME280;33408;52.062;11.722;2023-06-19T06:37:07;100854.38;;;19.78;100.00
47670;BME280;33408;52.062;11.722;2023-06-19T06:39:34;100840.03;;;19.67;100.00
47670;BME280;33408;52.062;11.722;2023-06-19T06:42:01;100840.78;;;19.70;100.00
47670;BME280;33408;52.062;11.722;2023-06-19T06:44:27;100860.91;;;19.71;100.00
47670;BME280;33408;52.062;11.722;2023-06-19T06:46:54;100856.56;;;19.70;100.00
47670;BME280;33408;52.062;11.722;2023-06-19T06:49:22;100856.88;;;19.63;100.00
47670;BME280;33408;52.062;11.722;2023-06-19T06:51:49;100853.00;;;19.55;100.00
47670;BME280;33408;52.062;11.722;2023-06-19T06:54:15;100843.28;;;19.39;100.00
47670;BME280;33408;52.062;11.722;2023-06-19T06:56:42;100848.50;;;19.23;100.00
47670;BME280;33408;52.062;11.722;2023-06-19T06:59:13;100852.25;;;19.35;100.00
47670;BME280;33408;52.062;11.722;2023-06-19T07:01:41;100852.44;;;19.48;100.00
47670;BME280;33408;52.062;11.722;2023-06-19T07:04:07;100857.72;;;19.48;100.00
47670;BME280;33408;52.062;11.722;2023-06-19T07:06:35;100853.72;;;19.41;100.00
47670;BME280;33408;52.062;11.722;2023-06-19T07:09:02;100849.38;;;19.40;100.00
47670;BME280;33408;52.062;11.722;2023-06-19T07:11:28;100857.88;;;19.29;100.00
47670;BME280;33408;52.062;11.722;2023-06-19T07:13:55;100856.81;;;18.98;100.00
47670;BME280;33408;52.062;11.722;2023-06-19T07:16:22;100856.13;;;18.94;100.00
47670;BME280;33408;52.062;11.722;2023-06-19T07:18:48;100855.75;;;18.85;100.00
47670;BME280;33408;52.062;11.722;2023-06-19T07:21:15;100856.38;;;18.90;100.00
47670;BME280;33408;52.062;11.722;2023-06-19T07:23:45;100862.72;;;19.03;100.00
47670;BME280;33408;52.062;11.722;2023-06-19T07:26:13;100873.97;;;18.70;100.00
47670;BME280;33408;52.062;11.722;2023-06-19T07:28:40;100877.69;;;18.66;100.00
47670;BME280;33408;52.062;11.722;2023-06-19T07:31:07;100872.50;;;18.65;100.00
47670;BME280;33408;52.062;11.722;2023-06-19T07:33:33;100878.31;;;18.89;100.00
47670;BME280;33408;52.062;11.722;2023-06-19T07:36:00;100871.44;;;19.04;100.00
47670;BME280;33408;52.062;11.722;2023-06-19T07:38:27;100867.88;;;19.05;100.00
47670;BME280;33408;52.062;11.722;2023-06-19T07:40:55;100870.88;;;19.15;100.00
47670;BME280;33408;52.062;11.722;2023-06-19T07:43:22;100876.88;;;19.34;100.00
47670;BME280;33408;52.062;11.722;2023-06-19T07:45:49;100869.81;;;19.35;100.00
47670;BME280;33408;52.062;11.722;2023-06-19T07:48:15;100866.72;;;19.44;100.00
47670;BME280;33408;52.062;11.722;2023-06-19T07:50:42;100861.63;;;19.57;100.00
47670;BME280;33408;52.062;11.722;2023-06-19T07:53:09;100859.25;;;19.52;100.00
47670;BME280;33408;52.062;11.722;2023-06-19T07:55:36;100858.34;;;19.53;100.00
47670;BME280;33408;52.062;11.722;2023-06-19T07:58:04;100849.84;;;19.64;100.00
47670;BME280;33408;52.062;11.722;2023-06-19T08:00:30;100861.63;;;19.90;100.00
47670;BME280;33408;52.062;11.722;2023-06-19T08:02:57;100853.66;;;20.22;100.00
47670;BME280;33408;52.062;11.722;2023-06-19T08:05:23;100857.75;;;20.12;100.00
47670;BME280;33408;52.062;11.722;2023-06-19T08:07:50;100847.06;;;19.99;100.00
47670;BME280;33408;52.062;11.722;2023-06-19T08:10:17;100844.38;;;20.00;100.00
47670;BME280;33408;52.062;11.722;2023-06-19T08:12:44;100840.50;;;20.22;100.00
47670;BME280;33408;52.062;11.722;2023-06-19T08:15:12;100824.59;;;20.39;100.00
47670;BME280;33408;52.062;11.722;2023-06-19T08:17:40;100829.63;;;20.28;100.00
47670;BME280;33408;52.062;11.722;2023-06-19T08:20:07;100829.88;;;20.70;100.00
47670;BME280;33408;52.062;11.722;2023-06-19T08:22:35;100826.13;;;20.74;100.00
47670;BME280;33408;52.062;11.722;2023-06-19T08:25:02;100838.28;;;21.05;100.00
47670;BME280;33408;52.062;11.722;2023-06-19T08:27:28;100830.84;;;21.26;100.00
47670;BME280;33408;52.062;11.722;2023-06-19T08:29:55;100824.66;;;21.56;100.00
47670;BME280;33408;52.062;11.722;2023-06-19T08:32:23;100831.03;;;21.66;100.00
47670;BME280;33408;52.062;11.722;2023-06-19T08:34:50;100839.00;;;21.79;100.00
47670;BME280;33408;52.062;11.722;2023-06-19T08:37:17;100833.69;;;21.94;100.00
47670;BME280;33408;52.062;11.722;2023-06-19T08:39:44;100835.47;;;22.20;100.00
47670;BME280;33408;52.062;11.722;2023-06-19T08:42:10;100829.56;;;22.57;100.00
47670;BME280;33408;52.062;11.722;2023-06-19T08:44:37;100834.84;;;22.70;100.00
47670;BME280;33408;52.062;11.722;2023-06-19T08:47:05;100834.56;;;22.87;100.00
47670;BME280;33408;52.062;11.722;2023-06-19T08:49:34;100842.88;;;22.68;100.00
47670;BME280;33408;52.062;11.722;2023-06-19T08:52:01;100833.94;;;23.09;100.00
47670;BME280;33408;52.062;11.722;2023-06-19T08:54:27;100839.63;;;23.29;100.00
47670;BME280;33408;52.062;11.722;2023-06-19T08:56:54;100834.78;;;23.73;99.42
47670;BME280;33408;52.062;11.722;2023-06-19T08:59:21;100828.53;;;23.37;95.51
47670;BME280;33408;52.062;11.722;2023-06-19T09:01:48;100829.44;;;23.48;94.84
47670;BME280;33408;52.062;11.722;2023-06-19T09:04:18;100830.94;;;23.53;93.52
47670;BME280;33408;52.062;11.722;2023-06-19T09:06:51;100826.53;;;23.64;93.57
47670;BME280;33408;52.062;11.722;2023-06-19T09:09:18;100822.06;;;24.26;89.52
47670;BME280;33408;52.062;11.722;2023-06-19T09:11:57;100819.31;;;24.39;89.63
47670;BME280;33408;52.062;11.722;2023-06-19T09:14:24;100812.38;;;24.38;86.10
47670;BME280;33408;52.062;11.722;2023-06-19T09:16:51;100816.09;;;25.16;83.18
47670;BME280;33408;52.062;11.722;2023-06-19T09:19:20;100816.56;;;25.66;82.31
47670;BME280;33408;52.062;11.722;2023-06-19T09:21:47;100814.00;;;25.76;79.44
47670;BME280;33408;52.062;11.722;2023-06-19T09:24:15;100813.06;;;26.10;74.64
47670;BME280;33408;52.062;11.722;2023-06-19T09:26:42;100805.88;;;26.00;74.24
47670;BME280;33408;52.062;11.722;2023-06-19T09:29:14;100806.16;;;26.18;73.80
47670;BME280;33408;52.062;11.722;2023-06-19T09:31:43;100801.47;;;26.11;72.68
47670;BME280;33408;52.062;11.722;2023-06-19T09:34:09;100796.16;;;26.53;70.89
47670;BME280;33408;52.062;11.722;2023-06-19T09:36:37;100783.94;;;26.19;70.25
47670;BME280;33408;52.062;11.722;2023-06-19T09:39:04;100790.53;;;26.04;72.03
47670;BME280;33408;52.062;11.722;2023-06-19T09:41:32;100785.16;;;26.57;71.04
47670;BME280;33408;52.062;11.722;2023-06-19T09:44:02;100778.63;;;26.41;71.04
47670;BME280;33408;52.062;11.722;2023-06-19T09:46:30;100774.19;;;27.03;70.92
47670;BME280;33408;52.062;11.722;2023-06-19T09:49:00;100778.25;;;26.97;71.99
47670;BME280;33408;52.062;11.722;2023-06-19T09:51:30;100780.97;;;27.67;70.75
47670;BME280;33408;52.062;11.722;2023-06-19T09:53:57;100779.69;;;27.42;70.69
47670;BME280;33408;52.062;11.722;2023-06-19T09:56:24;100776.78;;;27.64;69.12
47670;BME280;33408;52.062;11.722;2023-06-19T09:58:56;100782.97;;;27.24;66.81
47670;BME280;33408;52.062;11.722;2023-06-19T10:01:25;100784.81;;;27.94;66.26
47670;BME280;33408;52.062;11.722;2023-06-19T10:04:02;100780.25;;;27.55;64.77
47670;BME280;33408;52.062;11.722;2023-06-19T10:06:29;100777.88;;;27.52;62.98
47670;BME280;33408;52.062;11.722;2023-06-19T10:09:06;100766.16;;;28.04;61.11
47670;BME280;33408;52.062;11.722;2023-06-19T10:11:44;100773.16;;;28.24;59.85
47670;BME280;33408;52.062;11.722;2023-06-19T10:14:13;100764.44;;;27.93;60.50
47670;BME280;33408;52.062;11.722;2023-06-19T10:16:40;100766.41;;;28.10;60.81
47670;BME280;33408;52.062;11.722;2023-06-19T10:19:12;100766.97;;;28.24;61.43
47670;BME280;33408;52.062;11.722;2023-06-19T10:21:44;100760.44;;;28.65;57.44
47670;BME280;33408;52.062;11.722;2023-06-19T10:24:14;100766.50;;;28.95;55.94
47670;BME280;33408;52.062;11.722;2023-06-19T10:26:41;100771.44;;;29.18;56.48
47670;BME280;33408;52.062;11.722;2023-06-19T10:29:15;100753.19;;;29.23;55.14
47670;BME280;33408;52.062;11.722;2023-06-19T10:31:42;100759.22;;;28.87;55.98
47670;BME280;33408;52.062;11.722;2023-06-19T10:34:09;100753.06;;;28.87;53.37
47670;BME280;33408;52.062;11.722;2023-06-19T10:36:37;100740.00;;;29.12;54.30
47670;BME280;33408;52.062;11.722;2023-06-19T10:39:04;100749.72;;;29.40;54.56
47670;BME280;33408;52.062;11.722;2023-06-19T10:41:31;100753.41;;;29.93;53.38
47670;BME280;33408;52.062;11.722;2023-06-19T10:43:59;100749.34;;;29.53;51.15
47670;BME280;33408;52.062;11.722;2023-06-19T10:46:31;100740.13;;;29.20;50.83
47670;BME280;33408;52.062;11.722;2023-06-19T10:48:59;100743.31;;;29.69;48.88
47670;BME280;33408;52.062;11.722;2023-06-19T10:51:26;100750.41;;;29.60;48.84
47670;BME280;33408;52.062;11.722;2023-06-19T10:53:54;100744.06;;;29.97;48.12
47670;BME280;33408;52.062;11.722;2023-06-19T10:56:21;100742.94;;;30.00;47.45
47670;BME280;33408;52.062;11.722;2023-06-19T10:58:56;100736.91;;;29.98;48.29
47670;BME280;33408;52.062;11.722;2023-06-19T11:01:33;100730.56;;;29.99;47.13
47670;BME280;33408;52.062;11.722;2023-06-19T11:04:03;100735.03;;;30.16;46.60
47670;BME280;33408;52.062;11.722;2023-06-19T11:06:30;100729.16;;;29.77;45.81
47670;BME280;33408;52.062;11.722;2023-06-19T11:08:57;100733.25;;;29.81;45.89
47670;BME280;33408;52.062;11.722;2023-06-19T11:11:34;100732.28;;;30.08;45.27
47670;BME280;33408;52.062;11.722;2023-06-19T11:14:01;100730.75;;;30.06;46.00
47670;BME280;33408;52.062;11.722;2023-06-19T11:16:27;100720.34;;;30.39;46.27
47670;BME280;33408;52.062;11.722;2023-06-19T11:18:57;100725.44;;;30.32;45.81
47670;BME280;33408;52.062;11.722;2023-06-19T11:21:29;100719.31;;;30.40;45.76
47670;BME280;33408;52.062;11.722;2023-06-19T11:23:57;100719.72;;;30.27;46.51
47670;BME280;33408;52.062;11.722;2023-06-19T11:26:24;100717.44;;;30.32;45.41
47670;BME280;33408;52.062;11.722;2023-06-19T11:28:51;100721.94;;;29.87;45.22
47670;BME280;33408;52.062;11.722;2023-06-19T11:31:24;100710.41;;;29.69;45.40
47670;BME280;33408;52.062;11.722;2023-06-19T11:33:57;100712.00;;;29.25;46.17
47670;BME280;33408;52.062;11.722;2023-06-19T11:36:24;100712.47;;;29.39;46.61
47670;BME280;33408;52.062;11.722;2023-06-19T11:38:51;100716.28;;;29.54;46.34
47670;BME280;33408;52.062;11.722;2023-06-19T11:41:25;100717.09;;;29.19;46.80
47670;BME280;33408;52.062;11.722;2023-06-19T11:43:58;100715.22;;;29.65;46.03
47670;BME280;33408;52.062;11.722;2023-06-19T11:46:28;100706.50;;;29.27;44.16
47670;BME280;33408;52.062;11.722;2023-06-19T11:49:00;100711.19;;;29.79;43.69
47670;BME280;33408;52.062;11.722;2023-06-19T11:51:33;100706.97;;;29.76;43.65
47670;BME280;33408;52.062;11.722;2023-06-19T11:53:59;100709.19;;;29.63;43.78
47670;BME280;33408;52.062;11.722;2023-06-19T11:56:26;100708.75;;;30.12;43.33
47670;BME280;33408;52.062;11.722;2023-06-19T11:58:52;100699.91;;;29.85;42.56
47670;BME280;33408;52.062;11.722;2023-06-19T12:01:19;100701.75;;;29.93;43.00
47670;BME280;33408;52.062;11.722;2023-06-19T12:03:47;100698.16;;;30.02;43.23
47670;BME280;33408;52.062;11.722;2023-06-19T12:06:16;100695.72;;;30.35;42.68
47670;BME280;33408;52.062;11.722;2023-06-19T12:08:43;100679.50;;;30.63;42.73
47670;BME280;33408;52.062;11.722;2023-06-19T12:11:09;100678.47;;;30.64;42.45
47670;BME280;33408;52.062;11.722;2023-06-19T12:13:36;100682.66;;;30.32;41.99
47670;BME280;33408;52.062;11.722;2023-06-19T12:16:02;100685.09;;;30.25;42.65
47670;BME280;33408;52.062;11.722;2023-06-19T12:18:29;100683.66;;;30.31;41.86
47670;BME280;33408;52.062;11.722;2023-06-19T12:20:56;100676.97;;;30.61;41.77
47670;BME280;33408;52.062;11.722;2023-06-19T12:23:24;100674.66;;;30.66;41.51
47670;BME280;33408;52.062;11.722;2023-06-19T12:25:50;100678.97;;;30.59;41.51
47670;BME280;33408;52.062;11.722;2023-06-19T12:28:17;100680.41;;;30.88;40.62
47670;BME280;33408;52.062;11.722;2023-06-19T12:30:44;100681.09;;;31.57;40.30
47670;BME280;33408;52.062;11.722;2023-06-19T12:33:11;100679.53;;;31.22;40.76
47670;BME280;33408;52.062;11.722;2023-06-19T12:35:41;100683.63;;;31.67;40.35
47670;BME280;33408;52.062;11.722;2023-06-19T12:38:07;100682.59;;;31.60;39.62